Eskdalemuir, United Kingdom
Current Conditions -  °F | °C
As of 9:50 AM on Sunday 26 Oct 2014 (Local Time) from EGOM Reporting Station
Light Rain Light Rain  
Wind Chill: 52°   Ceiling: 3300
Heat Index: 52°   Visibility: 2.6mi
Dew Point: 48°   Wind: 35mph
Humidity: 88%   Direction: 240°WSW
Pressure: 29.77"   Gusts: 48mph
Location:  55.27°N, 3.18°W
Report Text: EGOM 260850Z AUTO 24030G42KT 4300 -RADZ SCT014/// BKN033/// 11/09 Q1008
Loading
Personal Weather Stations






























Interactive Weather Map New forecast layout! Learn more

10-Day Weather Forecast

Advertisements
Track Severe Weather on mobile